sensor_id;sensor_type;location;lat;lon;timestamp;P1;durP1;ratioP1;P2;durP2;ratioP2
15049;SDS011;7622;42.724;23.250;2023-07-13T00:00:37;7.77;;;5.53;;
15049;SDS011;7622;42.724;23.250;2023-07-13T00:03:05;5.93;;;5.33;;
15049;SDS011;7622;42.724;23.250;2023-07-13T00:05:32;5.30;;;4.80;;
15049;SDS011;7622;42.724;23.250;2023-07-13T00:08:00;4.80;;;4.40;;
15049;SDS011;7622;42.724;23.250;2023-07-13T00:10:27;4.90;;;4.40;;
15049;SDS011;7622;42.724;23.250;2023-07-13T00:12:54;5.00;;;4.60;;
15049;SDS011;7622;42.724;23.250;2023-07-13T00:15:22;4.97;;;4.60;;
15049;SDS011;7622;42.724;23.250;2023-07-13T00:17:50;5.23;;;4.73;;
15049;SDS011;7622;42.724;23.250;2023-07-13T00:20:18;5.10;;;4.60;;
15049;SDS011;7622;42.724;23.250;2023-07-13T00:22:47;5.80;;;4.97;;
15049;SDS011;7622;42.724;23.250;2023-07-13T00:25:15;5.63;;;5.13;;
15049;SDS011;7622;42.724;23.250;2023-07-13T00:27:43;5.17;;;4.67;;
15049;SDS011;7622;42.724;23.250;2023-07-13T00:30:10;5.33;;;4.80;;
15049;SDS011;7622;42.724;23.250;2023-07-13T00:32:37;6.30;;;5.77;;
15049;SDS011;7622;42.724;23.250;2023-07-13T00:35:04;5.37;;;4.83;;
15049;SDS011;7622;42.724;23.250;2023-07-13T00:37:32;5.70;;;5.20;;
15049;SDS011;7622;42.724;23.250;2023-07-13T00:40:00;6.10;;;5.60;;
15049;SDS011;7622;42.724;23.250;2023-07-13T00:42:29;5.93;;;5.33;;
15049;SDS011;7622;42.724;23.250;2023-07-13T00:45:00;6.93;;;5.83;;
15049;SDS011;7622;42.724;23.250;2023-07-13T00:47:28;7.43;;;6.80;;
15049;SDS011;7622;42.724;23.250;2023-07-13T00:49:55;6.37;;;5.77;;
15049;SDS011;7622;42.724;23.250;2023-07-13T00:52:22;6.70;;;6.20;;
15049;SDS011;7622;42.724;23.250;2023-07-13T00:54:49;6.83;;;6.23;;
15049;SDS011;7622;42.724;23.250;2023-07-13T00:57:17;8.33;;;6.60;;
15049;SDS011;7622;42.724;23.250;2023-07-13T00:59:48;6.73;;;5.87;;
15049;SDS011;7622;42.724;23.250;2023-07-13T01:02:18;8.43;;;6.87;;
15049;SDS011;7622;42.724;23.250;2023-07-13T01:04:46;6.30;;;5.70;;
15049;SDS011;7622;42.724;23.250;2023-07-13T01:07:13;7.07;;;6.47;;
15049;SDS011;7622;42.724;23.250;2023-07-13T01:09:40;7.70;;;7.00;;
15049;SDS011;7622;42.724;23.250;2023-07-13T01:12:07;6.60;;;6.13;;
15049;SDS011;7622;42.724;23.250;2023-07-13T01:14:35;7.03;;;6.43;;
15049;SDS011;7622;42.724;23.250;2023-07-13T01:17:03;8.60;;;6.43;;
15049;SDS011;7622;42.724;23.250;2023-07-13T01:19:32;7.50;;;6.67;;
15049;SDS011;7622;42.724;23.250;2023-07-13T01:22:04;6.73;;;6.00;;
15049;SDS011;7622;42.724;23.250;2023-07-13T01:24:33;6.70;;;6.10;;
15049;SDS011;7622;42.724;23.250;2023-07-13T01:27:01;7.70;;;7.00;;
15049;SDS011;7622;42.724;23.250;2023-07-13T01:29:28;6.60;;;6.10;;
15049;SDS011;7622;42.724;23.250;2023-07-13T01:31:55;7.53;;;6.83;;
15049;SDS011;7622;42.724;23.250;2023-07-13T01:34:21;7.10;;;6.50;;
15049;SDS011;7622;42.724;23.250;2023-07-13T01:36:48;7.30;;;6.77;;
15049;SDS011;7622;42.724;23.250;2023-07-13T01:39:20;7.40;;;6.70;;
15049;SDS011;7622;42.724;23.250;2023-07-13T01:41:46;7.07;;;6.23;;
15049;SDS011;7622;42.724;23.250;2023-07-13T01:44:13;7.67;;;6.37;;
15049;SDS011;7622;42.724;23.250;2023-07-13T01:46:40;9.00;;;7.60;;
15049;SDS011;7622;42.724;23.250;2023-07-13T01:49:07;7.97;;;6.17;;
15049;SDS011;7622;42.724;23.250;2023-07-13T01:51:33;9.47;;;7.07;;
15049;SDS011;7622;42.724;23.250;2023-07-13T01:54:00;6.90;;;6.40;;
15049;SDS011;7622;42.724;23.250;2023-07-13T01:56:28;6.83;;;6.27;;
15049;SDS011;7622;42.724;23.250;2023-07-13T01:58:55;8.30;;;6.87;;
15049;SDS011;7622;42.724;23.250;2023-07-13T02:01:22;11.77;;;6.77;;
15049;SDS011;7622;42.724;23.250;2023-07-13T02:03:49;7.83;;;6.63;;
15049;SDS011;7622;42.724;23.250;2023-07-13T02:06:16;7.60;;;6.87;;
15049;SDS011;7622;42.724;23.250;2023-07-13T02:08:43;8.17;;;6.57;;
15049;SDS011;7622;42.724;23.250;2023-07-13T02:11:09;7.63;;;6.80;;
15049;SDS011;7622;42.724;23.250;2023-07-13T02:13:38;10.30;;;6.60;;
15049;SDS011;7622;42.724;23.250;2023-07-13T02:16:04;6.63;;;5.87;;
15049;SDS011;7622;42.724;23.250;2023-07-13T02:18:31;7.17;;;6.47;;
15049;SDS011;7622;42.724;23.250;2023-07-13T02:20:58;8.20;;;5.90;;
15049;SDS011;7622;42.724;23.250;2023-07-13T02:23:25;6.77;;;6.17;;
15049;SDS011;7622;42.724;23.250;2023-07-13T02:25:54;7.20;;;6.53;;
15049;SDS011;7622;42.724;23.250;2023-07-13T02:28:21;6.57;;;5.87;;
15049;SDS011;7622;42.724;23.250;2023-07-13T02:30:49;9.63;;;5.97;;
15049;SDS011;7622;42.724;23.250;2023-07-13T02:33:16;7.07;;;6.20;;
15049;SDS011;7622;42.724;23.250;2023-07-13T02:35:42;8.30;;;6.53;;
15049;SDS011;7622;42.724;23.250;2023-07-13T02:38:09;6.57;;;5.67;;
15049;SDS011;7622;42.724;23.250;2023-07-13T02:40:36;8.57;;;6.23;;
15049;SDS011;7622;42.724;23.250;2023-07-13T02:43:03;6.83;;;5.97;;
15049;SDS011;7622;42.724;23.250;2023-07-13T02:45:30;6.40;;;5.67;;
15049;SDS011;7622;42.724;23.250;2023-07-13T02:47:58;7.23;;;6.67;;
15049;SDS011;7622;42.724;23.250;2023-07-13T02:50:25;7.33;;;5.90;;
15049;SDS011;7622;42.724;23.250;2023-07-13T02:52:51;6.50;;;6.00;;
15049;SDS011;7622;42.724;23.250;2023-07-13T02:55:18;7.93;;;6.23;;
15049;SDS011;7622;42.724;23.250;2023-07-13T02:57:45;6.37;;;5.77;;
15049;SDS011;7622;42.724;23.250;2023-07-13T03:00:12;9.20;;;6.47;;
15049;SDS011;7622;42.724;23.250;2023-07-13T03:02:41;7.40;;;6.30;;
15049;SDS011;7622;42.724;23.250;2023-07-13T03:05:09;7.70;;;6.00;;
15049;SDS011;7622;42.724;23.250;2023-07-13T03:07:38;9.07;;;6.80;;
15049;SDS011;7622;42.724;23.250;2023-07-13T03:10:05;7.67;;;6.37;;
15049;SDS011;7622;42.724;23.250;2023-07-13T03:12:32;9.77;;;6.70;;
15049;SDS011;7622;42.724;23.250;2023-07-13T03:14:59;7.00;;;6.40;;
15049;SDS011;7622;42.724;23.250;2023-07-13T03:17:26;8.07;;;6.50;;
15049;SDS011;7622;42.724;23.250;2023-07-13T03:19:52;13.57;;;7.33;;
15049;SDS011;7622;42.724;23.250;2023-07-13T03:22:21;10.37;;;6.80;;
15049;SDS011;7622;42.724;23.250;2023-07-13T03:24:47;9.37;;;6.80;;
15049;SDS011;7622;42.724;23.250;2023-07-13T03:27:14;10.43;;;7.40;;
15049;SDS011;7622;42.724;23.250;2023-07-13T03:29:41;10.97;;;7.30;;
15049;SDS011;7622;42.724;23.250;2023-07-13T03:32:08;8.53;;;6.03;;
15049;SDS011;7622;42.724;23.250;2023-07-13T03:34:35;10.30;;;7.10;;
15049;SDS011;7622;42.724;23.250;2023-07-13T03:37:03;13.07;;;7.97;;
15049;SDS011;7622;42.724;23.250;2023-07-13T03:39:31;8.03;;;7.07;;
15049;SDS011;7622;42.724;23.250;2023-07-13T03:41:58;9.83;;;7.23;;
15049;SDS011;7622;42.724;23.250;2023-07-13T03:44:25;11.03;;;7.17;;
15049;SDS011;7622;42.724;23.250;2023-07-13T03:46:51;11.70;;;7.37;;
15049;SDS011;7622;42.724;23.250;2023-07-13T03:49:18;11.50;;;7.47;;
15049;SDS011;7622;42.724;23.250;2023-07-13T03:51:45;10.87;;;7.93;;
15049;SDS011;7622;42.724;23.250;2023-07-13T03:54:12;13.27;;;7.17;;
15049;SDS011;7622;42.724;23.250;2023-07-13T03:56:40;17.83;;;8.07;;
15049;SDS011;7622;42.724;23.250;2023-07-13T03:59:07;12.27;;;7.47;;
15049;SDS011;7622;42.724;23.250;2023-07-13T04:01:33;12.30;;;7.37;;
15049;SDS011;7622;42.724;23.250;2023-07-13T04:04:00;14.73;;;8.40;;
15049;SDS011;7622;42.724;23.250;2023-07-13T04:06:28;11.17;;;8.07;;
15049;SDS011;7622;42.724;23.250;2023-07-13T04:08:56;12.70;;;7.77;;
15049;SDS011;7622;42.724;23.250;2023-07-13T04:11:25;11.57;;;8.67;;
15049;SDS011;7622;42.724;23.250;2023-07-13T04:13:55;13.23;;;7.67;;
15049;SDS011;7622;42.724;23.250;2023-07-13T04:16:22;11.70;;;7.97;;
15049;SDS011;7622;42.724;23.250;2023-07-13T04:18:49;9.67;;;8.67;;
15049;SDS011;7622;42.724;23.250;2023-07-13T04:21:19;25.47;;;8.63;;
15049;SDS011;7622;42.724;23.250;2023-07-13T04:23:46;10.33;;;8.20;;
15049;SDS011;7622;42.724;23.250;2023-07-13T04:26:13;14.00;;;8.27;;
15049;SDS011;7622;42.724;23.250;2023-07-13T04:28:40;11.57;;;8.47;;
15049;SDS011;7622;42.724;23.250;2023-07-13T04:31:08;18.30;;;8.70;;
15049;SDS011;7622;42.724;23.250;2023-07-13T04:33:35;13.80;;;8.93;;
15049;SDS011;7622;42.724;23.250;2023-07-13T04:36:02;12.70;;;9.17;;
15049;SDS011;7622;42.724;23.250;2023-07-13T04:38:30;13.20;;;9.20;;
15049;SDS011;7622;42.724;23.250;2023-07-13T04:40:58;14.00;;;8.97;;
15049;SDS011;7622;42.724;23.250;2023-07-13T04:43:26;26.73;;;9.27;;
15049;SDS011;7622;42.724;23.250;2023-07-13T04:45:54;10.60;;;8.60;;
15049;SDS011;7622;42.724;23.250;2023-07-13T04:48:22;17.07;;;9.03;;
15049;SDS011;7622;42.724;23.250;2023-07-13T04:50:54;15.33;;;8.53;;
15049;SDS011;7622;42.724;23.250;2023-07-13T04:53:22;10.40;;;8.80;;
15049;SDS011;7622;42.724;23.250;2023-07-13T04:55:48;16.90;;;8.90;;
15049;SDS011;7622;42.724;23.250;2023-07-13T04:58:15;10.43;;;8.27;;
15049;SDS011;7622;42.724;23.250;2023-07-13T05:00:42;10.07;;;8.13;;
15049;SDS011;7622;42.724;23.250;2023-07-13T05:03:09;12.77;;;8.27;;
15049;SDS011;7622;42.724;23.250;2023-07-13T05:05:37;23.77;;;8.73;;
15049;SDS011;7622;42.724;23.250;2023-07-13T05:08:04;10.33;;;8.30;;
15049;SDS011;7622;42.724;23.250;2023-07-13T05:10:32;8.43;;;7.60;;
15049;SDS011;7622;42.724;23.250;2023-07-13T05:12:59;9.07;;;8.07;;
15049;SDS011;7622;42.724;23.250;2023-07-13T05:15:26;14.33;;;8.13;;
15049;SDS011;7622;42.724;23.250;2023-07-13T05:17:53;8.37;;;7.57;;
15049;SDS011;7622;42.724;23.250;2023-07-13T05:20:20;9.13;;;8.23;;
15049;SDS011;7622;42.724;23.250;2023-07-13T05:22:48;14.25;;;8.05;;
15049;SDS011;7622;42.724;23.250;2023-07-13T05:25:15;10.73;;;7.95;;
15049;SDS011;7622;42.724;23.250;2023-07-13T05:27:42;11.23;;;8.10;;
15049;SDS011;7622;42.724;23.250;2023-07-13T05:30:11;9.60;;;7.78;;
15049;SDS011;7622;42.724;23.250;2023-07-13T05:32:41;8.57;;;7.70;;
15049;SDS011;7622;42.724;23.250;2023-07-13T05:35:11;9.68;;;7.20;;
15049;SDS011;7622;42.724;23.250;2023-07-13T05:37:38;10.50;;;7.32;;
15049;SDS011;7622;42.724;23.250;2023-07-13T05:40:07;11.38;;;7.93;;
15049;SDS011;7622;42.724;23.250;2023-07-13T05:42:34;21.25;;;8.43;;
15049;SDS011;7622;42.724;23.250;2023-07-13T05:45:01;9.20;;;7.53;;
15049;SDS011;7622;42.724;23.250;2023-07-13T05:47:28;16.52;;;8.93;;
15049;SDS011;7622;42.724;23.250;2023-07-13T05:49:55;14.52;;;8.68;;
15049;SDS011;7622;42.724;23.250;2023-07-13T05:52:22;11.70;;;8.25;;
15049;SDS011;7622;42.724;23.250;2023-07-13T05:54:48;11.65;;;7.60;;
15049;SDS011;7622;42.724;23.250;2023-07-13T05:57:16;9.93;;;8.15;;
15049;SDS011;7622;42.724;23.250;2023-07-13T05:59:43;13.52;;;8.63;;
15049;SDS011;7622;42.724;23.250;2023-07-13T06:02:10;10.95;;;7.78;;
15049;SDS011;7622;42.724;23.250;2023-07-13T06:04:37;8.98;;;8.15;;
15049;SDS011;7622;42.724;23.250;2023-07-13T06:07:04;10.55;;;7.50;;
15049;SDS011;7622;42.724;23.250;2023-07-13T06:09:31;8.35;;;7.45;;
15049;SDS011;7622;42.724;23.250;2023-07-13T06:11:58;11.32;;;7.20;;
15049;SDS011;7622;42.724;23.250;2023-07-13T06:14:26;8.48;;;7.70;;
15049;SDS011;7622;42.724;23.250;2023-07-13T06:16:52;10.98;;;8.57;;
15049;SDS011;7622;42.724;23.250;2023-07-13T06:19:19;9.77;;;7.97;;
15049;SDS011;7622;42.724;23.250;2023-07-13T06:21:46;10.02;;;8.32;;
15049;SDS011;7622;42.724;23.250;2023-07-13T06:24:13;10.85;;;8.65;;
15049;SDS011;7622;42.724;23.250;2023-07-13T06:26:39;9.55;;;8.32;;
15049;SDS011;7622;42.724;23.250;2023-07-13T06:29:06;10.18;;;8.63;;
15049;SDS011;7622;42.724;23.250;2023-07-13T06:31:35;14.90;;;8.70;;
15049;SDS011;7622;42.724;23.250;2023-07-13T06:34:02;9.48;;;7.90;;
15049;SDS011;7622;42.724;23.250;2023-07-13T06:36:28;9.23;;;8.02;;
15049;SDS011;7622;42.724;23.250;2023-07-13T06:38:55;11.20;;;8.20;;
15049;SDS011;7622;42.724;23.250;2023-07-13T06:41:22;10.80;;;8.13;;
15049;SDS011;7622;42.724;23.250;2023-07-13T06:43:51;9.95;;;8.40;;
15049;SDS011;7622;42.724;23.250;2023-07-13T06:46:18;10.55;;;8.13;;
15049;SDS011;7622;42.724;23.250;2023-07-13T06:48:48;12.02;;;8.15;;
15049;SDS011;7622;42.724;23.250;2023-07-13T06:51:18;10.15;;;7.43;;
15049;SDS011;7622;42.724;23.250;2023-07-13T06:53:48;10.13;;;7.28;;
15049;SDS011;7622;42.724;23.250;2023-07-13T06:56:15;7.82;;;7.13;;
15049;SDS011;7622;42.724;23.250;2023-07-13T06:58:45;9.32;;;7.40;;
15049;SDS011;7622;42.724;23.250;2023-07-13T07:01:15;10.73;;;7.82;;
15049;SDS011;7622;42.724;23.250;2023-07-13T07:03:41;10.90;;;7.88;;
15049;SDS011;7622;42.724;23.250;2023-07-13T07:06:12;8.38;;;7.20;;
15049;SDS011;7622;42.724;23.250;2023-07-13T07:08:40;13.25;;;7.90;;
15049;SDS011;7622;42.724;23.250;2023-07-13T07:11:08;15.40;;;7.75;;
15049;SDS011;7622;42.724;23.250;2023-07-13T07:13:37;16.17;;;8.55;;
15049;SDS011;7622;42.724;23.250;2023-07-13T07:16:04;10.43;;;8.23;;
15049;SDS011;7622;42.724;23.250;2023-07-13T07:18:31;14.23;;;8.20;;
15049;SDS011;7622;42.724;23.250;2023-07-13T07:20:58;10.07;;;7.80;;
15049;SDS011;7622;42.724;23.250;2023-07-13T07:23:26;10.93;;;8.77;;
15049;SDS011;7622;42.724;23.250;2023-07-13T07:25:53;8.52;;;7.68;;
15049;SDS011;7622;42.724;23.250;2023-07-13T07:28:20;11.15;;;7.40;;
15049;SDS011;7622;42.724;23.250;2023-07-13T07:30:48;9.70;;;7.88;;
15049;SDS011;7622;42.724;23.250;2023-07-13T07:33:15;7.68;;;7.00;;
15049;SDS011;7622;42.724;23.250;2023-07-13T07:35:42;9.30;;;8.25;;
15049;SDS011;7622;42.724;23.250;2023-07-13T07:38:09;9.13;;;7.35;;
15049;SDS011;7622;42.724;23.250;2023-07-13T07:40:37;8.43;;;7.55;;
15049;SDS011;7622;42.724;23.250;2023-07-13T07:43:05;9.77;;;8.07;;
15049;SDS011;7622;42.724;23.250;2023-07-13T07:45:32;8.30;;;7.43;;
15049;SDS011;7622;42.724;23.250;2023-07-13T07:47:59;12.18;;;8.32;;
15049;SDS011;7622;42.724;23.250;2023-07-13T07:50:25;9.88;;;7.95;;
15049;SDS011;7622;42.724;23.250;2023-07-13T07:52:53;8.25;;;7.55;;
15049;SDS011;7622;42.724;23.250;2023-07-13T07:55:21;9.82;;;7.55;;
15049;SDS011;7622;42.724;23.250;2023-07-13T07:57:50;12.60;;;8.30;;
15049;SDS011;7622;42.724;23.250;2023-07-13T08:00:17;13.38;;;8.85;;
15049;SDS011;7622;42.724;23.250;2023-07-13T08:02:44;14.25;;;8.43;;
15049;SDS011;7622;42.724;23.250;2023-07-13T08:05:11;10.00;;;8.30;;
15049;SDS011;7622;42.724;23.250;2023-07-13T08:07:38;12.82;;;8.65;;
15049;SDS011;7622;42.724;23.250;2023-07-13T08:10:06;12.50;;;8.43;;
15049;SDS011;7622;42.724;23.250;2023-07-13T08:12:34;10.20;;;7.75;;
15049;SDS011;7622;42.724;23.250;2023-07-13T08:15:02;11.23;;;8.32;;
15049;SDS011;7622;42.724;23.250;2023-07-13T08:17:30;12.13;;;8.15;;
15049;SDS011;7622;42.724;23.250;2023-07-13T08:19:57;9.63;;;8.10;;
15049;SDS011;7622;42.724;23.250;2023-07-13T08:22:24;11.60;;;8.88;;
15049;SDS011;7622;42.724;23.250;2023-07-13T08:24:51;10.35;;;8.32;;
15049;SDS011;7622;42.724;23.250;2023-07-13T08:27:22;13.32;;;8.40;;
15049;SDS011;7622;42.724;23.250;2023-07-13T08:29:50;9.52;;;8.18;;
15049;SDS011;7622;42.724;23.250;2023-07-13T08:32:20;10.10;;;7.95;;
15049;SDS011;7622;42.724;23.250;2023-07-13T08:34:50;10.98;;;7.57;;
15049;SDS011;7622;42.724;23.250;2023-07-13T08:37:20;9.02;;;8.23;;
15049;SDS011;7622;42.724;23.250;2023-07-13T08:39:46;9.32;;;8.20;;
15049;SDS011;7622;42.724;23.250;2023-07-13T08:42:14;8.52;;;7.55;;
15049;SDS011;7622;42.724;23.250;2023-07-13T08:44:55;9.40;;;8.45;;
15049;SDS011;7622;42.724;23.250;2023-07-13T08:47:31;13.13;;;8.32;;
15049;SDS011;7622;42.724;23.250;2023-07-13T08:50:02;12.52;;;7.97;;
15049;SDS011;7622;42.724;23.250;2023-07-13T08:52:30;22.30;;;9.05;;
15049;SDS011;7622;42.724;23.250;2023-07-13T08:55:02;14.77;;;8.60;;
15049;SDS011;7622;42.724;23.250;2023-07-13T08:57:36;17.30;;;8.95;;
15049;SDS011;7622;42.724;23.250;2023-07-13T09:00:04;21.15;;;8.82;;
15049;SDS011;7622;42.724;23.250;2023-07-13T09:02:39;19.65;;;8.65;;
15049;SDS011;7622;42.724;23.250;2023-07-13T09:05:12;13.35;;;8.30;;
15049;SDS011;7622;42.724;23.250;2023-07-13T09:07:45;12.50;;;8.75;;
15049;SDS011;7622;42.724;23.250;2023-07-13T09:10:26;16.05;;;8.40;;
15049;SDS011;7622;42.724;23.250;2023-07-13T09:12:58;11.25;;;8.23;;
15049;SDS011;7622;42.724;23.250;2023-07-13T09:15:34;11.77;;;8.18;;
15049;SDS011;7622;42.724;23.250;2023-07-13T09:18:08;12.13;;;7.97;;
15049;SDS011;7622;42.724;23.250;2023-07-13T09:20:38;8.93;;;7.45;;
15049;SDS011;7622;42.724;23.250;2023-07-13T09:23:11;12.00;;;8.00;;
15049;SDS011;7622;42.724;23.250;2023-07-13T09:25:40;14.90;;;7.80;;
15049;SDS011;7622;42.724;23.250;2023-07-13T09:28:10;12.80;;;8.15;;
15049;SDS011;7622;42.724;23.250;2023-07-13T09:30:43;8.32;;;7.53;;
15049;SDS011;7622;42.724;23.250;2023-07-13T09:33:19;9.13;;;7.90;;
15049;SDS011;7622;42.724;23.250;2023-07-13T09:35:46;11.13;;;6.80;;
15049;SDS011;7622;42.724;23.250;2023-07-13T09:38:14;7.18;;;6.50;;
15049;SDS011;7622;42.724;23.250;2023-07-13T09:40:46;7.70;;;6.13;;
15049;SDS011;7622;42.724;23.250;2023-07-13T09:43:23;11.02;;;7.95;;
15049;SDS011;7622;42.724;23.250;2023-07-13T09:45:50;11.13;;;7.97;;
15049;SDS011;7622;42.724;23.250;2023-07-13T09:48:20;11.02;;;7.68;;
15049;SDS011;7622;42.724;23.250;2023-07-13T09:50:46;11.75;;;6.45;;
15049;SDS011;7622;42.724;23.250;2023-07-13T09:53:14;9.98;;;6.63;;
15049;SDS011;7622;42.724;23.250;2023-07-13T09:55:44;11.57;;;5.78;;
15049;SDS011;7622;42.724;23.250;2023-07-13T09:58:14;7.38;;;5.05;;
15049;SDS011;7622;42.724;23.250;2023-07-13T10:00:43;7.93;;;5.10;;
15049;SDS011;7622;42.724;23.250;2023-07-13T10:03:21;5.43;;;4.93;;
15049;SDS011;7622;42.724;23.250;2023-07-13T10:05:50;11.38;;;5.65;;
15049;SDS011;7622;42.724;23.250;2023-07-13T10:08:20;14.05;;;5.55;;
15049;SDS011;7622;42.724;23.250;2023-07-13T10:10:53;8.73;;;5.50;;
15049;SDS011;7622;42.724;23.250;2023-07-13T10:13:25;7.07;;;5.53;;
15049;SDS011;7622;42.724;23.250;2023-07-13T10:15:54;8.02;;;5.03;;
15049;SDS011;7622;42.724;23.250;2023-07-13T10:18:24;5.82;;;5.35;;
15049;SDS011;7622;42.724;23.250;2023-07-13T10:20:53;8.23;;;4.97;;
15049;SDS011;7622;42.724;23.250;2023-07-13T10:23:26;8.35;;;5.43;;
15049;SDS011;7622;42.724;23.250;2023-07-13T10:25:57;6.35;;;5.50;;
15049;SDS011;7622;42.724;23.250;2023-07-13T10:28:31;11.93;;;5.07;;
15049;SDS011;7622;42.724;23.250;2023-07-13T10:31:04;8.52;;;5.15;;
15049;SDS011;7622;42.724;23.250;2023-07-13T10:33:43;6.95;;;5.40;;
15049;SDS011;7622;42.724;23.250;2023-07-13T10:36:14;6.13;;;5.53;;
15049;SDS011;7622;42.724;23.250;2023-07-13T10:38:48;7.53;;;5.22;;
15049;SDS011;7622;42.724;23.250;2023-07-13T10:41:19;6.13;;;5.10;;
15049;SDS011;7622;42.724;23.250;2023-07-13T10:43:50;6.13;;;4.68;;
15049;SDS011;7622;42.724;23.250;2023-07-13T10:46:20;7.55;;;5.05;;
15049;SDS011;7622;42.724;23.250;2023-07-13T10:48:52;5.38;;;4.78;;
15049;SDS011;7622;42.724;23.250;2023-07-13T10:51:21;12.35;;;5.25;;
15049;SDS011;7622;42.724;23.250;2023-07-13T10:54:10;5.63;;;4.57;;
15049;SDS011;7622;42.724;23.250;2023-07-13T10:56:41;6.35;;;4.78;;
15049;SDS011;7622;42.724;23.250;2023-07-13T10:59:12;9.75;;;5.32;;
15049;SDS011;7622;42.724;23.250;2023-07-13T11:01:50;9.55;;;4.93;;
15049;SDS011;7622;42.724;23.250;2023-07-13T11:04:22;7.47;;;4.90;;
15049;SDS011;7622;42.724;23.250;2023-07-13T11:06:52;6.43;;;4.70;;
15049;SDS011;7622;42.724;23.250;2023-07-13T11:09:32;8.40;;;5.53;;
15049;SDS011;7622;42.724;23.250;2023-07-13T11:12:05;10.57;;;4.88;;
15049;SDS011;7622;42.724;23.250;2023-07-13T11:14:42;11.25;;;5.57;;
15049;SDS011;7622;42.724;23.250;2023-07-13T11:20:20;9.27;;;5.05;;
15049;SDS011;7622;42.724;23.250;2023-07-13T11:25:47;15.48;;;5.35;;
15049;SDS011;7622;42.724;23.250;2023-07-13T11:28:18;5.82;;;4.88;;
15049;SDS011;7622;42.724;23.250;2023-07-13T11:30:49;8.95;;;5.00;;
15049;SDS011;7622;42.724;23.250;2023-07-13T11:33:49;5.32;;;4.57;;
15049;SDS011;7622;42.724;23.250;2023-07-13T11:36:27;8.65;;;4.90;;
15049;SDS011;7622;42.724;23.250;2023-07-13T11:39:04;10.25;;;5.18;;
15049;SDS011;7622;42.724;23.250;2023-07-13T11:41:44;4.95;;;4.45;;
15049;SDS011;7622;42.724;23.250;2023-07-13T11:44:16;11.57;;;5.18;;
15049;SDS011;7622;42.724;23.250;2023-07-13T11:46:46;6.82;;;4.80;;
15049;SDS011;7622;42.724;23.250;2023-07-13T11:49:17;7.10;;;4.68;;
15049;SDS011;7622;42.724;23.250;2023-07-13T11:51:46;12.07;;;5.32;;
15049;SDS011;7622;42.724;23.250;2023-07-13T11:54:21;8.13;;;5.20;;
15049;SDS011;7622;42.724;23.250;2023-07-13T11:56:51;7.22;;;4.50;;
15049;SDS011;7622;42.724;23.250;2023-07-13T11:59:19;7.05;;;4.70;;
15049;SDS011;7622;42.724;23.250;2023-07-13T12:01:47;8.32;;;5.05;;
15049;SDS011;7622;42.724;23.250;2023-07-13T12:04:20;9.70;;;4.65;;
15049;SDS011;7622;42.724;23.250;2023-07-13T12:06:55;9.50;;;5.00;;
15049;SDS011;7622;42.724;23.250;2023-07-13T12:09:25;8.55;;;4.97;;
15049;SDS011;7622;42.724;23.250;2023-07-13T12:11:55;8.23;;;5.78;;
15049;SDS011;7622;42.724;23.250;2023-07-13T12:14:23;8.23;;;5.07;;
15049;SDS011;7622;42.724;23.250;2023-07-13T12:16:51;8.85;;;5.53;;
15049;SDS011;7622;42.724;23.250;2023-07-13T12:19:20;6.75;;;5.70;;
15049;SDS011;7622;42.724;23.250;2023-07-13T12:21:48;14.05;;;5.50;;
15049;SDS011;7622;42.724;23.250;2023-07-13T12:24:18;11.70;;;5.95;;
15049;SDS011;7622;42.724;23.250;2023-07-13T12:26:50;11.20;;;5.40;;
15049;SDS011;7622;42.724;23.250;2023-07-13T12:29:18;19.52;;;5.50;;
15049;SDS011;7622;42.724;23.250;2023-07-13T12:31:45;6.93;;;5.55;;
15049;SDS011;7622;42.724;23.250;2023-07-13T12:34:14;5.47;;;4.50;;
15049;SDS011;7622;42.724;23.250;2023-07-13T12:36:45;13.32;;;5.25;;
15049;SDS011;7622;42.724;23.250;2023-07-13T12:39:15;8.90;;;5.30;;
15049;SDS011;7622;42.724;23.250;2023-07-13T12:41:46;7.20;;;4.90;;
15049;SDS011;7622;42.724;23.250;2023-07-13T12:44:15;8.77;;;5.22;;
15049;SDS011;7622;42.724;23.250;2023-07-13T12:46:52;5.90;;;5.20;;
15049;SDS011;7622;42.724;23.250;2023-07-13T12:49:23;6.80;;;5.57;;
15049;SDS011;7622;42.724;23.250;2023-07-13T12:51:55;8.23;;;5.25;;
15049;SDS011;7622;42.724;23.250;2023-07-13T12:54:26;7.93;;;5.10;;
15049;SDS011;7622;42.724;23.250;2023-07-13T12:56:53;6.95;;;5.30;;
15049;SDS011;7622;42.724;23.250;2023-07-13T12:59:23;8.65;;;5.28;;
15049;SDS011;7622;42.724;23.250;2023-07-13T13:01:53;9.20;;;5.32;;
15049;SDS011;7622;42.724;23.250;2023-07-13T13:04:20;7.05;;;5.07;;
15049;SDS011;7622;42.724;23.250;2023-07-13T13:06:48;7.68;;;5.15;;
15049;SDS011;7622;42.724;23.250;2023-07-13T13:09:16;11.60;;;5.60;;
15049;SDS011;7622;42.724;23.250;2023-07-13T13:11:45;7.60;;;5.78;;
15049;SDS011;7622;42.724;23.250;2023-07-13T13:14:11;7.90;;;5.20;;
15049;SDS011;7622;42.724;23.250;2023-07-13T13:16:43;9.95;;;5.68;;
15049;SDS011;7622;42.724;23.250;2023-07-13T13:19:14;6.25;;;4.88;;
15049;SDS011;7622;42.724;23.250;2023-07-13T13:21:42;7.80;;;5.00;;
15049;SDS011;7622;42.724;23.250;2023-07-13T13:24:13;12.73;;;5.20;;
15049;SDS011;7622;42.724;23.250;2023-07-13T13:26:41;7.35;;;5.53;;
15049;SDS011;7622;42.724;23.250;2023-07-13T13:29:13;9.00;;;5.30;;
15049;SDS011;7622;42.724;23.250;2023-07-13T13:31:42;5.07;;;4.68;;
15049;SDS011;7622;42.724;23.250;2023-07-13T13:34:10;5.82;;;4.95;;
15049;SDS011;7622;42.724;23.250;2023-07-13T13:36:38;9.98;;;5.15;;
15049;SDS011;7622;42.724;23.250;2023-07-13T13:39:12;8.52;;;5.18;;
15049;SDS011;7622;42.724;23.250;2023-07-13T13:41:46;6.97;;;5.20;;
15049;SDS011;7622;42.724;23.250;2023-07-13T13:44:14;9.10;;;5.45;;
15049;SDS011;7622;42.724;23.250;2023-07-13T13:46:42;9.70;;;5.43;;
15049;SDS011;7622;42.724;23.250;2023-07-13T13:49:13;17.15;;;5.63;;
15049;SDS011;7622;42.724;23.250;2023-07-13T13:51:42;8.05;;;5.15;;
15049;SDS011;7622;42.724;23.250;2023-07-13T13:54:10;6.32;;;5.70;;
15049;SDS011;7622;42.724;23.250;2023-07-13T13:56:38;12.45;;;5.20;;
15049;SDS011;7622;42.724;23.250;2023-07-13T13:59:07;8.60;;;5.18;;
15049;SDS011;7622;42.724;23.250;2023-07-13T14:01:35;8.57;;;5.00;;
15049;SDS011;7622;42.724;23.250;2023-07-13T14:04:02;12.50;;;5.15;;
15049;SDS011;7622;42.724;23.250;2023-07-13T14:06:30;9.82;;;5.53;;
15049;SDS011;7622;42.724;23.250;2023-07-13T14:08:57;7.13;;;5.18;;
15049;SDS011;7622;42.724;23.250;2023-07-13T14:11:26;10.02;;;5.13;;
15049;SDS011;7622;42.724;23.250;2023-07-13T14:13:54;8.10;;;5.28;;
15049;SDS011;7622;42.724;23.250;2023-07-13T14:16:25;5.38;;;4.68;;
15049;SDS011;7622;42.724;23.250;2023-07-13T14:18:56;10.10;;;5.18;;
15049;SDS011;7622;42.724;23.250;2023-07-13T14:21:25;7.50;;;5.03;;
15049;SDS011;7622;42.724;23.250;2023-07-13T14:23:53;10.30;;;5.53;;
15049;SDS011;7622;42.724;23.250;2023-07-13T14:26:21;8.55;;;5.63;;
15049;SDS011;7622;42.724;23.250;2023-07-13T14:28:50;9.27;;;5.68;;
15049;SDS011;7622;42.724;23.250;2023-07-13T14:31:20;6.30;;;4.88;;
15049;SDS011;7622;42.724;23.250;2023-07-13T14:33:47;12.40;;;5.78;;
15049;SDS011;7622;42.724;23.250;2023-07-13T14:36:20;10.35;;;5.57;;
15049;SDS011;7622;42.724;23.250;2023-07-13T14:38:52;12.52;;;5.28;;
15049;SDS011;7622;42.724;23.250;2023-07-13T14:41:20;10.23;;;5.13;;
15049;SDS011;7622;42.724;23.250;2023-07-13T14:43:47;7.00;;;4.80;;
15049;SDS011;7622;42.724;23.250;2023-07-13T14:46:18;6.07;;;5.18;;
15049;SDS011;7622;42.724;23.250;2023-07-13T14:48:54;12.25;;;5.85;;
15049;SDS011;7622;42.724;23.250;2023-07-13T14:51:32;7.95;;;5.13;;
15049;SDS011;7622;42.724;23.250;2023-07-13T14:54:03;9.48;;;5.75;;
15049;SDS011;7622;42.724;23.250;2023-07-13T14:56:31;12.88;;;5.63;;
15049;SDS011;7622;42.724;23.250;2023-07-13T14:58:58;6.25;;;5.10;;